Airport View

Enter AWOS ICAO identifier for current METAR.

ex. KFNL

KHKY 040453Z AUTO 32004KT 10SM BKN017 21/19 A2994 RMK AO2 SLP116 T02060194 402670200

4 Aug 2020 05:02

Frequency: 118.325

Phone: 828-322-2996

Other Area AWOS: KMRN - KIPJ - KSVH - KTNB

TAF KHKY 032339Z 0400/0424 07005KT P6SM -SHRA BKN110 FM040400 03004KT P6SM FEW014 BKN040 FM040900 VRB04KT 5SM BR SCT008 BKN050 FM041300 24007KT P6SM SCT050